Ana Sayfa
METAR-TAF:

METAR-TAF

Havaalanları :

Phrae, Tayland

Enlem: 18-10N, Boylam: 100-10E, yükseklik: 161 m

Güncel hava durumu gözlemi

Rapor saat 11:00 UTC de 42 dakika önce yapıldı.
Rüzgar güney/güneybatıdan 9 kt
Sıcaklık 32°C
Nem 63%
Basınç 1004 hPa
Görüş mesafesi 10 km veya daha fazla
3500 ft yükseklikte az bulutlu

METAR: VTCP 161100Z 21009KT 9999 FEW035 32/24 Q1004 NOSIG

Saat: 18:42 (11:42 UTC)

Tahmin

Rapor saat 05:00 UTC de 6 saat ve 42 dakika önce yapıldı.
Ayın 16'si saat 06 UTC'den ayın 17'si saat 06 UTC'ye kadar geçerli Tahmin
Rüzgar güneybatıdan 5 kt
Görüş mesafesi 10 km veya daha fazla
3000 ft yükseklikte parçalı bulutlu
Geçici
ayın 16'si saat 07 UTC'den ayın 16'si saat 13 UTC'ye kadar
2000 ft yükseklikte az bulutlu, Kümülonimbus.
3000 ft yükseklikte parçalı çok bulutlu
gök gürültülü fırtına, hafif yağmur,

TAF: VTCP 160500Z 1606/1706 22005KT 9999 SCT030 TEMPO 1607/1613 -TSRA FEW020CB BKN030

4.000'den fazla havaalanı için hava durumu gözlemleri ve tahminleri (METAR ve TAF raporları).

Kullanılabilir istasyonlar harita üzerinde sarı ve kırmızı noktalarla gösterilir.

İstasyonun adını görmek için fareyi noktanın üzerinde gezdirin.

Sonrasında hava gözlem ve tahminlerini görmek için tıklayın.

Haritayı değiştirmek için: yaklaştırmak için siyah artı işaretli yeşil düğmeye ve uzaklaştırmak için de eksi işaretli düğmeye hızla tıklayın; bitişik haritalar için yeşil okları kullanın.


METAR-TAF: